sensor_id;sensor_type;location;lat;lon;timestamp;P1;durP1;ratioP1;P2;durP2;ratioP2
7719;SDS011;3902;49.474;8.616;2023-02-28T00:00:24;2.50;;;2.30;;
7719;SDS011;3902;49.474;8.616;2023-02-28T00:02:50;2.23;;;2.03;;
7719;SDS011;3902;49.474;8.616;2023-02-28T00:05:17;2.50;;;2.03;;
7719;SDS011;3902;49.474;8.616;2023-02-28T00:07:44;3.00;;;2.33;;
7719;SDS011;3902;49.474;8.616;2023-02-28T00:10:14;3.20;;;2.10;;
7719;SDS011;3902;49.474;8.616;2023-02-28T00:12:44;2.20;;;2.00;;
7719;SDS011;3902;49.474;8.616;2023-02-28T00:15:10;1.60;;;1.50;;
7719;SDS011;3902;49.474;8.616;2023-02-28T00:17:36;2.13;;;1.93;;
7719;SDS011;3902;49.474;8.616;2023-02-28T00:20:02;2.23;;;2.03;;
7719;SDS011;3902;49.474;8.616;2023-02-28T00:22:37;2.23;;;1.93;;
7719;SDS011;3902;49.474;8.616;2023-02-28T00:25:05;2.37;;;2.17;;
7719;SDS011;3902;49.474;8.616;2023-02-28T00:27:32;3.50;;;2.20;;
7719;SDS011;3902;49.474;8.616;2023-02-28T00:29:58;2.70;;;2.40;;
7719;SDS011;3902;49.474;8.616;2023-02-28T00:32:23;2.23;;;2.03;;
7719;SDS011;3902;49.474;8.616;2023-02-28T00:34:49;2.90;;;2.13;;
7719;SDS011;3902;49.474;8.616;2023-02-28T00:37:14;2.60;;;2.00;;
7719;SDS011;3902;49.474;8.616;2023-02-28T00:39:40;2.57;;;2.10;;
7719;SDS011;3902;49.474;8.616;2023-02-28T00:42:06;2.20;;;1.87;;
7719;SDS011;3902;49.474;8.616;2023-02-28T00:44:32;2.27;;;2.07;;
7719;SDS011;3902;49.474;8.616;2023-02-28T00:46:58;2.60;;;2.00;;
7719;SDS011;3902;49.474;8.616;2023-02-28T00:49:24;2.00;;;1.80;;
7719;SDS011;3902;49.474;8.616;2023-02-28T00:51:50;2.20;;;1.93;;
7719;SDS011;3902;49.474;8.616;2023-02-28T00:54:16;2.07;;;1.87;;
7719;SDS011;3902;49.474;8.616;2023-02-28T00:56:42;2.37;;;2.13;;
7719;SDS011;3902;49.474;8.616;2023-02-28T00:59:07;3.20;;;2.03;;
7719;SDS011;3902;49.474;8.616;2023-02-28T01:01:33;3.10;;;2.60;;
7719;SDS011;3902;49.474;8.616;2023-02-28T01:03:59;2.40;;;2.07;;
7719;SDS011;3902;49.474;8.616;2023-02-28T01:06:24;2.93;;;2.63;;
7719;SDS011;3902;49.474;8.616;2023-02-28T01:08:50;3.63;;;2.63;;
7719;SDS011;3902;49.474;8.616;2023-02-28T01:11:16;3.20;;;2.87;;
7719;SDS011;3902;49.474;8.616;2023-02-28T01:13:43;2.50;;;2.30;;
7719;SDS011;3902;49.474;8.616;2023-02-28T01:16:10;2.40;;;2.20;;
7719;SDS011;3902;49.474;8.616;2023-02-28T01:18:35;2.63;;;2.40;;
7719;SDS011;3902;49.474;8.616;2023-02-28T01:21:06;2.77;;;2.27;;
7719;SDS011;3902;49.474;8.616;2023-02-28T01:23:33;2.57;;;2.33;;
7719;SDS011;3902;49.474;8.616;2023-02-28T01:26:03;2.30;;;2.10;;
7719;SDS011;3902;49.474;8.616;2023-02-28T01:28:40;3.37;;;2.20;;
7719;SDS011;3902;49.474;8.616;2023-02-28T01:31:06;2.50;;;2.30;;
7719;SDS011;3902;49.474;8.616;2023-02-28T01:33:32;2.50;;;2.30;;
7719;SDS011;3902;49.474;8.616;2023-02-28T01:36:02;2.40;;;2.20;;
7719;SDS011;3902;49.474;8.616;2023-02-28T01:38:30;3.80;;;2.43;;
7719;SDS011;3902;49.474;8.616;2023-02-28T01:40:56;2.90;;;2.40;;
7719;SDS011;3902;49.474;8.616;2023-02-28T01:45:49;2.33;;;2.10;;
7719;SDS011;3902;49.474;8.616;2023-02-28T01:48:15;2.63;;;2.40;;
7719;SDS011;3902;49.474;8.616;2023-02-28T01:50:42;4.00;;;2.30;;
7719;SDS011;3902;49.474;8.616;2023-02-28T01:53:10;2.67;;;2.47;;
7719;SDS011;3902;49.474;8.616;2023-02-28T01:55:39;2.43;;;2.20;;
7719;SDS011;3902;49.474;8.616;2023-02-28T01:58:09;2.73;;;2.53;;
7719;SDS011;3902;49.474;8.616;2023-02-28T02:00:35;2.20;;;2.00;;
7719;SDS011;3902;49.474;8.616;2023-02-28T02:03:08;2.97;;;2.70;;
7719;SDS011;3902;49.474;8.616;2023-02-28T02:05:36;2.63;;;2.03;;
7719;SDS011;3902;49.474;8.616;2023-02-28T02:08:05;3.97;;;3.00;;
7719;SDS011;3902;49.474;8.616;2023-02-28T02:10:35;2.60;;;2.40;;
7719;SDS011;3902;49.474;8.616;2023-02-28T02:13:20;2.93;;;2.60;;
7719;SDS011;3902;49.474;8.616;2023-02-28T02:19:14;2.60;;;2.40;;
7719;SDS011;3902;49.474;8.616;2023-02-28T02:24:55;3.87;;;2.50;;
7719;SDS011;3902;49.474;8.616;2023-02-28T02:27:42;2.80;;;2.60;;
7719;SDS011;3902;49.474;8.616;2023-02-28T02:35:59;3.17;;;2.57;;
7719;SDS011;3902;49.474;8.616;2023-02-28T02:38:40;3.20;;;2.67;;
7719;SDS011;3902;49.474;8.616;2023-02-28T02:46:48;3.47;;;3.17;;
7719;SDS011;3902;49.474;8.616;2023-02-28T02:49:21;2.93;;;2.40;;
7719;SDS011;3902;49.474;8.616;2023-02-28T02:51:50;2.87;;;2.60;;
7719;SDS011;3902;49.474;8.616;2023-02-28T02:54:22;3.50;;;3.17;;
7719;SDS011;3902;49.474;8.616;2023-02-28T02:56:53;3.20;;;2.60;;
7719;SDS011;3902;49.474;8.616;2023-02-28T02:59:23;3.23;;;2.93;;
7719;SDS011;3902;49.474;8.616;2023-02-28T03:01:50;2.80;;;2.57;;
7719;SDS011;3902;49.474;8.616;2023-02-28T03:04:19;3.27;;;2.73;;
7719;SDS011;3902;49.474;8.616;2023-02-28T03:06:48;2.90;;;2.70;;
7719;SDS011;3902;49.474;8.616;2023-02-28T03:09:19;3.50;;;3.03;;
7719;SDS011;3902;49.474;8.616;2023-02-28T03:11:46;3.20;;;2.90;;
7719;SDS011;3902;49.474;8.616;2023-02-28T03:14:18;3.27;;;2.97;;
7719;SDS011;3902;49.474;8.616;2023-02-28T03:19:55;3.10;;;2.50;;
7719;SDS011;3902;49.474;8.616;2023-02-28T03:22:33;4.70;;;3.00;;
7719;SDS011;3902;49.474;8.616;2023-02-28T03:27:40;3.47;;;3.00;;
7719;SDS011;3902;49.474;8.616;2023-02-28T03:30:10;4.63;;;3.00;;
7719;SDS011;3902;49.474;8.616;2023-02-28T03:32:57;3.93;;;3.13;;
7719;SDS011;3902;49.474;8.616;2023-02-28T03:35:31;2.93;;;2.70;;
7719;SDS011;3902;49.474;8.616;2023-02-28T03:38:04;4.43;;;3.10;;
7719;SDS011;3902;49.474;8.616;2023-02-28T03:40:39;3.43;;;3.13;;
7719;SDS011;3902;49.474;8.616;2023-02-28T03:43:11;4.03;;;3.10;;
7719;SDS011;3902;49.474;8.616;2023-02-28T03:45:42;3.67;;;3.37;;
7719;SDS011;3902;49.474;8.616;2023-02-28T03:48:12;3.73;;;3.10;;
7719;SDS011;3902;49.474;8.616;2023-02-28T03:50:47;4.30;;;3.40;;
7719;SDS011;3902;49.474;8.616;2023-02-28T03:53:19;3.40;;;3.10;;
7719;SDS011;3902;49.474;8.616;2023-02-28T03:55:53;3.40;;;2.80;;
7719;SDS011;3902;49.474;8.616;2023-02-28T03:58:37;5.87;;;3.70;;
7719;SDS011;3902;49.474;8.616;2023-02-28T04:01:19;4.40;;;3.20;;
7719;SDS011;3902;49.474;8.616;2023-02-28T04:04:06;2.90;;;2.67;;
7719;SDS011;3902;49.474;8.616;2023-02-28T04:06:36;3.33;;;3.03;;
7719;SDS011;3902;49.474;8.616;2023-02-28T04:09:02;3.70;;;3.17;;
7719;SDS011;3902;49.474;8.616;2023-02-28T04:11:33;3.30;;;3.00;;
7719;SDS011;3902;49.474;8.616;2023-02-28T04:14:01;3.53;;;3.23;;
7719;SDS011;3902;49.474;8.616;2023-02-28T04:16:28;4.73;;;3.00;;
7719;SDS011;3902;49.474;8.616;2023-02-28T04:18:55;4.30;;;3.60;;
7719;SDS011;3902;49.474;8.616;2023-02-28T04:21:27;3.67;;;3.37;;
7719;SDS011;3902;49.474;8.616;2023-02-28T04:23:56;3.60;;;3.30;;
7719;SDS011;3902;49.474;8.616;2023-02-28T04:26:25;3.50;;;3.20;;
7719;SDS011;3902;49.474;8.616;2023-02-28T04:28:55;4.10;;;3.20;;
7719;SDS011;3902;49.474;8.616;2023-02-28T04:31:21;4.10;;;3.70;;
7719;SDS011;3902;49.474;8.616;2023-02-28T04:33:46;4.17;;;3.83;;
7719;SDS011;3902;49.474;8.616;2023-02-28T04:36:12;3.80;;;3.40;;
7719;SDS011;3902;49.474;8.616;2023-02-28T04:38:39;4.33;;;3.83;;
7719;SDS011;3902;49.474;8.616;2023-02-28T04:41:05;4.43;;;4.00;;
7719;SDS011;3902;49.474;8.616;2023-02-28T04:43:30;4.60;;;3.70;;
7719;SDS011;3902;49.474;8.616;2023-02-28T04:45:57;4.30;;;3.87;;
7719;SDS011;3902;49.474;8.616;2023-02-28T04:48:27;4.93;;;3.57;;
7719;SDS011;3902;49.474;8.616;2023-02-28T04:50:54;3.90;;;3.60;;
7719;SDS011;3902;49.474;8.616;2023-02-28T04:53:24;3.73;;;3.20;;
7719;SDS011;3902;49.474;8.616;2023-02-28T04:55:49;5.87;;;4.37;;
7719;SDS011;3902;49.474;8.616;2023-02-28T04:58:15;3.90;;;3.53;;
7719;SDS011;3902;49.474;8.616;2023-02-28T05:00:41;4.13;;;3.73;;
7719;SDS011;3902;49.474;8.616;2023-02-28T05:03:06;4.27;;;3.87;;
7719;SDS011;3902;49.474;8.616;2023-02-28T05:05:32;4.03;;;3.73;;
7719;SDS011;3902;49.474;8.616;2023-02-28T05:07:58;4.10;;;3.70;;
7719;SDS011;3902;49.474;8.616;2023-02-28T05:10:23;3.90;;;3.50;;
7719;SDS011;3902;49.474;8.616;2023-02-28T05:12:49;5.20;;;3.47;;
7719;SDS011;3902;49.474;8.616;2023-02-28T05:15:15;4.00;;;3.70;;
7719;SDS011;3902;49.474;8.616;2023-02-28T05:17:41;3.87;;;3.47;;
7719;SDS011;3902;49.474;8.616;2023-02-28T05:20:07;4.30;;;3.60;;
7719;SDS011;3902;49.474;8.616;2023-02-28T05:22:35;4.30;;;3.90;;
7719;SDS011;3902;49.474;8.616;2023-02-28T05:25:02;4.30;;;3.60;;
7719;SDS011;3902;49.474;8.616;2023-02-28T05:27:28;3.67;;;3.37;;
7719;SDS011;3902;49.474;8.616;2023-02-28T05:29:53;4.00;;;3.37;;
7719;SDS011;3902;49.474;8.616;2023-02-28T05:32:18;4.30;;;3.63;;
7719;SDS011;3902;49.474;8.616;2023-02-28T05:34:44;4.30;;;3.80;;
7719;SDS011;3902;49.474;8.616;2023-02-28T05:37:13;3.80;;;3.10;;
7719;SDS011;3902;49.474;8.616;2023-02-28T05:39:40;5.00;;;3.80;;
7719;SDS011;3902;49.474;8.616;2023-02-28T05:42:06;5.07;;;3.70;;
7719;SDS011;3902;49.474;8.616;2023-02-28T05:44:33;4.47;;;4.07;;
7719;SDS011;3902;49.474;8.616;2023-02-28T05:46:58;4.50;;;4.10;;
7719;SDS011;3902;49.474;8.616;2023-02-28T05:49:24;5.20;;;4.17;;
7719;SDS011;3902;49.474;8.616;2023-02-28T05:51:49;4.53;;;3.90;;
7719;SDS011;3902;49.474;8.616;2023-02-28T05:54:15;4.13;;;3.73;;
7719;SDS011;3902;49.474;8.616;2023-02-28T05:56:41;4.83;;;3.90;;
7719;SDS011;3902;49.474;8.616;2023-02-28T05:59:09;4.17;;;3.67;;
7719;SDS011;3902;49.474;8.616;2023-02-28T06:01:36;5.03;;;4.10;;
7719;SDS011;3902;49.474;8.616;2023-02-28T06:04:03;4.10;;;3.70;;
7719;SDS011;3902;49.474;8.616;2023-02-28T06:06:31;5.43;;;4.37;;
7719;SDS011;3902;49.474;8.616;2023-02-28T06:08:59;4.67;;;3.90;;
7719;SDS011;3902;49.474;8.616;2023-02-28T06:11:25;4.57;;;4.10;;
7719;SDS011;3902;49.474;8.616;2023-02-28T06:13:55;5.03;;;4.20;;
7719;SDS011;3902;49.474;8.616;2023-02-28T06:16:22;4.67;;;4.23;;
7719;SDS011;3902;49.474;8.616;2023-02-28T06:18:48;5.70;;;4.20;;
7719;SDS011;3902;49.474;8.616;2023-02-28T06:21:14;4.70;;;3.97;;
7719;SDS011;3902;49.474;8.616;2023-02-28T06:23:39;4.93;;;4.50;;
7719;SDS011;3902;49.474;8.616;2023-02-28T06:26:05;4.47;;;3.43;;
7719;SDS011;3902;49.474;8.616;2023-02-28T06:28:30;4.17;;;3.60;;
7719;SDS011;3902;49.474;8.616;2023-02-28T06:30:56;4.60;;;4.20;;
7719;SDS011;3902;49.474;8.616;2023-02-28T06:33:22;5.20;;;4.50;;
7719;SDS011;3902;49.474;8.616;2023-02-28T06:35:49;5.33;;;4.43;;
7719;SDS011;3902;49.474;8.616;2023-02-28T06:38:15;4.93;;;4.43;;
7719;SDS011;3902;49.474;8.616;2023-02-28T06:40:41;6.33;;;4.53;;
7719;SDS011;3902;49.474;8.616;2023-02-28T06:43:06;5.53;;;4.93;;
7719;SDS011;3902;49.474;8.616;2023-02-28T06:45:32;4.33;;;3.93;;
7719;SDS011;3902;49.474;8.616;2023-02-28T06:47:57;4.80;;;4.30;;
7719;SDS011;3902;49.474;8.616;2023-02-28T06:50:25;4.80;;;4.30;;
7719;SDS011;3902;49.474;8.616;2023-02-28T06:52:52;4.40;;;4.00;;
7719;SDS011;3902;49.474;8.616;2023-02-28T06:55:19;4.50;;;4.10;;
7719;SDS011;3902;49.474;8.616;2023-02-28T06:57:44;5.10;;;4.60;;
7719;SDS011;3902;49.474;8.616;2023-02-28T07:00:10;4.93;;;4.43;;
7719;SDS011;3902;49.474;8.616;2023-02-28T07:02:36;5.83;;;4.63;;
7719;SDS011;3902;49.474;8.616;2023-02-28T07:05:03;4.60;;;4.00;;
7719;SDS011;3902;49.474;8.616;2023-02-28T07:07:29;4.97;;;4.47;;
7719;SDS011;3902;49.474;8.616;2023-02-28T07:09:55;5.17;;;4.67;;
7719;SDS011;3902;49.474;8.616;2023-02-28T07:12:21;6.00;;;4.30;;
7719;SDS011;3902;49.474;8.616;2023-02-28T07:14:47;6.03;;;4.67;;
7719;SDS011;3902;49.474;8.616;2023-02-28T07:17:12;4.97;;;4.20;;
7719;SDS011;3902;49.474;8.616;2023-02-28T07:19:38;5.20;;;4.20;;
7719;SDS011;3902;49.474;8.616;2023-02-28T07:22:04;4.70;;;4.20;;
7719;SDS011;3902;49.474;8.616;2023-02-28T07:24:30;5.60;;;4.93;;
7719;SDS011;3902;49.474;8.616;2023-02-28T07:26:56;5.00;;;4.50;;
7719;SDS011;3902;49.474;8.616;2023-02-28T07:29:22;4.93;;;4.43;;
7719;SDS011;3902;49.474;8.616;2023-02-28T07:31:47;6.83;;;4.67;;
7719;SDS011;3902;49.474;8.616;2023-02-28T07:34:15;4.30;;;3.90;;
7719;SDS011;3902;49.474;8.616;2023-02-28T07:36:40;4.70;;;4.30;;
7719;SDS011;3902;49.474;8.616;2023-02-28T07:39:06;4.33;;;3.80;;
7719;SDS011;3902;49.474;8.616;2023-02-28T07:41:34;4.80;;;4.40;;
7719;SDS011;3902;49.474;8.616;2023-02-28T07:44:02;4.73;;;3.97;;
7719;SDS011;3902;49.474;8.616;2023-02-28T07:46:28;5.83;;;4.53;;
7719;SDS011;3902;49.474;8.616;2023-02-28T07:48:59;4.23;;;3.70;;
7719;SDS011;3902;49.474;8.616;2023-02-28T07:51:25;4.33;;;3.93;;
7719;SDS011;3902;49.474;8.616;2023-02-28T07:53:51;4.77;;;4.13;;
7719;SDS011;3902;49.474;8.616;2023-02-28T07:56:16;5.00;;;4.10;;
7719;SDS011;3902;49.474;8.616;2023-02-28T07:58:42;4.10;;;3.80;;
7719;SDS011;3902;49.474;8.616;2023-02-28T08:01:08;4.60;;;4.20;;
7719;SDS011;3902;49.474;8.616;2023-02-28T08:03:35;4.90;;;4.40;;
7719;SDS011;3902;49.474;8.616;2023-02-28T08:06:02;7.20;;;4.60;;
7719;SDS011;3902;49.474;8.616;2023-02-28T08:08:29;4.90;;;4.43;;
7719;SDS011;3902;49.474;8.616;2023-02-28T08:10:57;5.57;;;4.67;;
7719;SDS011;3902;49.474;8.616;2023-02-28T08:13:27;4.73;;;4.30;;
7719;SDS011;3902;49.474;8.616;2023-02-28T08:15:54;5.10;;;4.60;;
7719;SDS011;3902;49.474;8.616;2023-02-28T08:18:20;5.53;;;4.23;;
7719;SDS011;3902;49.474;8.616;2023-02-28T08:20:47;4.97;;;4.47;;
7719;SDS011;3902;49.474;8.616;2023-02-28T08:23:13;5.00;;;4.13;;
7719;SDS011;3902;49.474;8.616;2023-02-28T08:25:38;5.60;;;4.80;;
7719;SDS011;3902;49.474;8.616;2023-02-28T08:28:04;5.00;;;4.57;;
7719;SDS011;3902;49.474;8.616;2023-02-28T08:30:30;6.10;;;4.10;;
7719;SDS011;3902;49.474;8.616;2023-02-28T08:32:55;4.90;;;4.27;;
7719;SDS011;3902;49.474;8.616;2023-02-28T08:35:21;4.77;;;4.10;;
7719;SDS011;3902;49.474;8.616;2023-02-28T08:37:49;6.73;;;4.57;;
7719;SDS011;3902;49.474;8.616;2023-02-28T08:40:15;4.97;;;4.40;;
7719;SDS011;3902;49.474;8.616;2023-02-28T08:42:44;4.97;;;4.47;;
7719;SDS011;3902;49.474;8.616;2023-02-28T08:45:10;5.60;;;4.53;;
7719;SDS011;3902;49.474;8.616;2023-02-28T08:47:36;4.30;;;3.90;;
7719;SDS011;3902;49.474;8.616;2023-02-28T08:50:02;5.20;;;4.70;;
7719;SDS011;3902;49.474;8.616;2023-02-28T08:52:28;6.80;;;5.23;;
7719;SDS011;3902;49.474;8.616;2023-02-28T08:54:54;6.30;;;4.70;;
7719;SDS011;3902;49.474;8.616;2023-02-28T08:57:19;8.00;;;4.57;;
7719;SDS011;3902;49.474;8.616;2023-02-28T08:59:45;4.90;;;4.07;;
7719;SDS011;3902;49.474;8.616;2023-02-28T09:02:14;4.93;;;4.50;;
7719;SDS011;3902;49.474;8.616;2023-02-28T09:04:40;5.20;;;4.70;;
7719;SDS011;3902;49.474;8.616;2023-02-28T09:07:06;4.87;;;4.37;;
7719;SDS011;3902;49.474;8.616;2023-02-28T09:09:32;5.57;;;5.03;;
7719;SDS011;3902;49.474;8.616;2023-02-28T09:11:57;5.30;;;4.80;;
7719;SDS011;3902;49.474;8.616;2023-02-28T09:14:23;4.97;;;4.47;;
7719;SDS011;3902;49.474;8.616;2023-02-28T09:16:49;4.63;;;4.23;;
7719;SDS011;3902;49.474;8.616;2023-02-28T09:19:15;4.20;;;3.80;;
7719;SDS011;3902;49.474;8.616;2023-02-28T09:21:40;6.40;;;4.80;;
7719;SDS011;3902;49.474;8.616;2023-02-28T09:24:06;4.77;;;4.27;;
7719;SDS011;3902;49.474;8.616;2023-02-28T09:26:32;4.53;;;4.10;;
7719;SDS011;3902;49.474;8.616;2023-02-28T09:28:59;6.17;;;4.50;;
7719;SDS011;3902;49.474;8.616;2023-02-28T09:31:25;6.33;;;4.73;;
7719;SDS011;3902;49.474;8.616;2023-02-28T09:33:53;5.13;;;4.27;;
7719;SDS011;3902;49.474;8.616;2023-02-28T09:36:21;5.60;;;4.10;;
7719;SDS011;3902;49.474;8.616;2023-02-28T09:38:48;5.03;;;4.37;;
7719;SDS011;3902;49.474;8.616;2023-02-28T09:41:17;5.00;;;4.50;;
7719;SDS011;3902;49.474;8.616;2023-02-28T09:43:50;5.23;;;4.73;;
7719;SDS011;3902;49.474;8.616;2023-02-28T09:46:38;4.63;;;4.23;;
7719;SDS011;3902;49.474;8.616;2023-02-28T09:49:11;5.00;;;4.50;;
7719;SDS011;3902;49.474;8.616;2023-02-28T09:54:17;6.30;;;4.73;;
7719;SDS011;3902;49.474;8.616;2023-02-28T09:57:48;5.73;;;4.13;;
7719;SDS011;3902;49.474;8.616;2023-02-28T10:05:30;5.40;;;4.80;;
7719;SDS011;3902;49.474;8.616;2023-02-28T10:08:05;4.93;;;4.40;;
7719;SDS011;3902;49.474;8.616;2023-02-28T10:13:22;4.80;;;4.40;;
7719;SDS011;3902;49.474;8.616;2023-02-28T10:15:50;5.60;;;4.17;;
7719;SDS011;3902;49.474;8.616;2023-02-28T10:21:38;4.83;;;4.30;;
7719;SDS011;3902;49.474;8.616;2023-02-28T10:27:13;4.43;;;4.03;;
7719;SDS011;3902;49.474;8.616;2023-02-28T10:29:40;5.50;;;4.80;;
7719;SDS011;3902;49.474;8.616;2023-02-28T10:32:09;5.10;;;4.30;;
7719;SDS011;3902;49.474;8.616;2023-02-28T10:34:39;4.50;;;4.10;;
7719;SDS011;3902;49.474;8.616;2023-02-28T10:37:05;4.90;;;4.27;;
7719;SDS011;3902;49.474;8.616;2023-02-28T10:39:39;4.90;;;4.27;;
7719;SDS011;3902;49.474;8.616;2023-02-28T10:42:18;5.60;;;4.73;;
7719;SDS011;3902;49.474;8.616;2023-02-28T10:44:46;5.00;;;4.50;;
7719;SDS011;3902;49.474;8.616;2023-02-28T10:47:14;4.93;;;3.97;;
7719;SDS011;3902;49.474;8.616;2023-02-28T10:49:46;5.20;;;4.70;;
7719;SDS011;3902;49.474;8.616;2023-02-28T10:52:13;5.03;;;4.60;;
7719;SDS011;3902;49.474;8.616;2023-02-28T10:55:13;5.37;;;4.87;;
7719;SDS011;3902;49.474;8.616;2023-02-28T10:57:41;5.10;;;4.63;;
7719;SDS011;3902;49.474;8.616;2023-02-28T11:02:50;4.90;;;4.40;;
7719;SDS011;3902;49.474;8.616;2023-02-28T11:05:32;4.53;;;4.13;;
7719;SDS011;3902;49.474;8.616;2023-02-28T11:10:53;6.20;;;4.90;;
7719;SDS011;3902;49.474;8.616;2023-02-28T11:13:21;5.00;;;4.50;;
7719;SDS011;3902;49.474;8.616;2023-02-28T11:15:52;4.40;;;4.00;;
7719;SDS011;3902;49.474;8.616;2023-02-28T11:18:24;5.70;;;4.37;;
7719;SDS011;3902;49.474;8.616;2023-02-28T11:20:54;6.47;;;4.50;;
7719;SDS011;3902;49.474;8.616;2023-02-28T11:23:23;4.50;;;4.10;;
7719;SDS011;3902;49.474;8.616;2023-02-28T11:25:52;6.47;;;4.67;;
7719;SDS011;3902;49.474;8.616;2023-02-28T11:28:41;7.03;;;5.00;;
7719;SDS011;3902;49.474;8.616;2023-02-28T11:36:11;5.00;;;4.50;;
7719;SDS011;3902;49.474;8.616;2023-02-28T11:38:39;4.80;;;4.27;;
7719;SDS011;3902;49.474;8.616;2023-02-28T11:41:18;5.80;;;4.90;;
7719;SDS011;3902;49.474;8.616;2023-02-28T11:44:03;4.07;;;3.67;;
7719;SDS011;3902;49.474;8.616;2023-02-28T11:46:56;5.10;;;4.60;;
7719;SDS011;3902;49.474;8.616;2023-02-28T11:49:33;4.10;;;3.70;;
7719;SDS011;3902;49.474;8.616;2023-02-28T11:52:14;4.63;;;3.70;;
7719;SDS011;3902;49.474;8.616;2023-02-28T11:54:59;4.23;;;3.83;;
7719;SDS011;3902;49.474;8.616;2023-02-28T12:00:29;4.90;;;4.40;;
7719;SDS011;3902;49.474;8.616;2023-02-28T12:03:37;4.50;;;3.77;;
7719;SDS011;3902;49.474;8.616;2023-02-28T12:12:16;3.93;;;3.20;;
7719;SDS011;3902;49.474;8.616;2023-02-28T12:18:13;4.47;;;3.87;;
7719;SDS011;3902;49.474;8.616;2023-02-28T12:23:25;3.60;;;3.13;;
7719;SDS011;3902;49.474;8.616;2023-02-28T12:26:14;4.47;;;3.57;;
7719;SDS011;3902;49.474;8.616;2023-02-28T12:29:01;3.57;;;3.27;;
7719;SDS011;3902;49.474;8.616;2023-02-28T12:31:29;3.77;;;3.37;;
7719;SDS011;3902;49.474;8.616;2023-02-28T12:34:01;4.43;;;3.70;;
7719;SDS011;3902;49.474;8.616;2023-02-28T12:36:31;3.67;;;3.30;;
7719;SDS011;3902;49.474;8.616;2023-02-28T12:39:00;4.57;;;4.10;;
7719;SDS011;3902;49.474;8.616;2023-02-28T12:41:36;4.93;;;3.70;;
7719;SDS011;3902;49.474;8.616;2023-02-28T12:44:54;3.80;;;3.50;;
7719;SDS011;3902;49.474;8.616;2023-02-28T12:47:03;4.30;;;3.90;;
7719;SDS011;3902;49.474;8.616;2023-02-28T12:49:45;4.70;;;4.20;;
7719;SDS011;3902;49.474;8.616;2023-02-28T12:52:11;4.10;;;3.70;;
7719;SDS011;3902;49.474;8.616;2023-02-28T12:54:51;4.20;;;3.80;;
7719;SDS011;3902;49.474;8.616;2023-02-28T12:57:34;4.33;;;3.93;;
7719;SDS011;3902;49.474;8.616;2023-02-28T13:00:18;4.07;;;3.67;;
7719;SDS011;3902;49.474;8.616;2023-02-28T13:14:23;4.20;;;3.80;;
7719;SDS011;3902;49.474;8.616;2023-02-28T13:19:21;4.07;;;3.60;;
7719;SDS011;3902;49.474;8.616;2023-02-28T13:21:48;4.60;;;3.70;;
7719;SDS011;3902;49.474;8.616;2023-02-28T13:29:34;3.83;;;3.53;;
7719;SDS011;3902;49.474;8.616;2023-02-28T13:42:41;4.97;;;4.37;;
7719;SDS011;3902;49.474;8.616;2023-02-28T13:47:30;4.80;;;4.30;;
7719;SDS011;3902;49.474;8.616;2023-02-28T13:55:43;5.90;;;4.57;;
7719;SDS011;3902;49.474;8.616;2023-02-28T14:04:08;4.40;;;4.00;;
7719;SDS011;3902;49.474;8.616;2023-02-28T14:06:26;4.57;;;4.07;;
7719;SDS011;3902;49.474;8.616;2023-02-28T14:08:55;4.20;;;3.90;;
7719;SDS011;3902;49.474;8.616;2023-02-28T14:13:59;4.07;;;3.77;;
7719;SDS011;3902;49.474;8.616;2023-02-28T14:16:27;4.40;;;3.53;;
7719;SDS011;3902;49.474;8.616;2023-02-28T14:19:05;4.83;;;4.37;;
7719;SDS011;3902;49.474;8.616;2023-02-28T14:21:46;4.87;;;4.00;;
7719;SDS011;3902;49.474;8.616;2023-02-28T14:30:05;4.93;;;4.20;;
7719;SDS011;3902;49.474;8.616;2023-02-28T14:41:21;4.67;;;4.27;;
7719;SDS011;3902;49.474;8.616;2023-02-28T14:44:02;5.50;;;4.70;;
7719;SDS011;3902;49.474;8.616;2023-02-28T14:46:38;5.40;;;4.80;;
7719;SDS011;3902;49.474;8.616;2023-02-28T14:49:05;4.50;;;4.10;;
7719;SDS011;3902;49.474;8.616;2023-02-28T14:51:37;5.00;;;4.60;;
7719;SDS011;3902;49.474;8.616;2023-02-28T14:54:03;5.13;;;4.63;;
7719;SDS011;3902;49.474;8.616;2023-02-28T14:56:38;4.40;;;4.00;;
7719;SDS011;3902;49.474;8.616;2023-02-28T14:59:05;4.13;;;3.83;;
7719;SDS011;3902;49.474;8.616;2023-02-28T15:01:46;4.47;;;4.07;;
7719;SDS011;3902;49.474;8.616;2023-02-28T15:04:24;5.20;;;4.50;;
7719;SDS011;3902;49.474;8.616;2023-02-28T15:07:08;4.93;;;4.50;;
7719;SDS011;3902;49.474;8.616;2023-02-28T15:09:38;4.33;;;3.93;;
7719;SDS011;3902;49.474;8.616;2023-02-28T15:12:03;4.13;;;3.73;;
7719;SDS011;3902;49.474;8.616;2023-02-28T15:14:29;3.90;;;3.50;;
7719;SDS011;3902;49.474;8.616;2023-02-28T15:16:57;4.10;;;3.70;;
7719;SDS011;3902;49.474;8.616;2023-02-28T15:19:27;4.07;;;3.67;;
7719;SDS011;3902;49.474;8.616;2023-02-28T15:21:57;3.70;;;3.40;;
7719;SDS011;3902;49.474;8.616;2023-02-28T15:24:51;4.73;;;3.93;;
7719;SDS011;3902;49.474;8.616;2023-02-28T15:27:20;5.00;;;4.40;;
7719;SDS011;3902;49.474;8.616;2023-02-28T15:29:48;4.47;;;4.07;;
7719;SDS011;3902;49.474;8.616;2023-02-28T15:32:30;8.33;;;4.70;;
7719;SDS011;3902;49.474;8.616;2023-02-28T15:35:17;5.57;;;5.07;;
7719;SDS011;3902;49.474;8.616;2023-02-28T15:37:52;4.60;;;4.20;;
7719;SDS011;3902;49.474;8.616;2023-02-28T15:40:25;6.60;;;5.70;;
7719;SDS011;3902;49.474;8.616;2023-02-28T15:45:41;6.30;;;5.70;;
7719;SDS011;3902;49.474;8.616;2023-02-28T15:48:29;6.63;;;6.03;;
7719;SDS011;3902;49.474;8.616;2023-02-28T15:53:42;6.50;;;5.90;;
7719;SDS011;3902;49.474;8.616;2023-02-28T15:56:30;6.77;;;6.17;;
7719;SDS011;3902;49.474;8.616;2023-02-28T15:58:59;6.60;;;5.90;;
7719;SDS011;3902;49.474;8.616;2023-02-28T16:01:32;7.17;;;6.47;;
7719;SDS011;3902;49.474;8.616;2023-02-28T16:04:00;5.70;;;5.10;;
7719;SDS011;3902;49.474;8.616;2023-02-28T16:09:18;6.83;;;6.23;;
7719;SDS011;3902;49.474;8.616;2023-02-28T16:11:47;6.50;;;5.90;;
7719;SDS011;3902;49.474;8.616;2023-02-28T16:14:15;6.53;;;5.93;;
7719;SDS011;3902;49.474;8.616;2023-02-28T16:16:46;6.03;;;5.20;;
7719;SDS011;3902;49.474;8.616;2023-02-28T16:19:14;6.30;;;5.73;;
7719;SDS011;3902;49.474;8.616;2023-02-28T16:21:40;6.80;;;6.10;;
7719;SDS011;3902;49.474;8.616;2023-02-28T16:24:06;6.30;;;5.70;;
7719;SDS011;3902;49.474;8.616;2023-02-28T16:26:32;7.10;;;6.30;;
7719;SDS011;3902;49.474;8.616;2023-02-28T16:28:59;6.17;;;5.40;;
7719;SDS011;3902;49.474;8.616;2023-02-28T16:31:25;6.57;;;5.90;;
7719;SDS011;3902;49.474;8.616;2023-02-28T16:33:51;8.03;;;6.57;;
7719;SDS011;3902;49.474;8.616;2023-02-28T16:36:18;7.57;;;6.87;;
7719;SDS011;3902;49.474;8.616;2023-02-28T16:38:45;7.13;;;6.43;;
7719;SDS011;3902;49.474;8.616;2023-02-28T16:41:16;7.03;;;6.33;;
7719;SDS011;3902;49.474;8.616;2023-02-28T16:43:48;6.43;;;5.83;;
7719;SDS011;3902;49.474;8.616;2023-02-28T16:46:15;6.90;;;6.20;;
7719;SDS011;3902;49.474;8.616;2023-02-28T16:48:41;7.50;;;6.67;;
7719;SDS011;3902;49.474;8.616;2023-02-28T16:51:11;7.03;;;5.53;;
7719;SDS011;3902;49.474;8.616;2023-02-28T16:53:40;7.50;;;6.60;;
7719;SDS011;3902;49.474;8.616;2023-02-28T16:56:08;7.00;;;6.20;;
7719;SDS011;3902;49.474;8.616;2023-02-28T16:58:43;7.27;;;6.47;;
7719;SDS011;3902;49.474;8.616;2023-02-28T17:01:09;7.80;;;6.50;;
7719;SDS011;3902;49.474;8.616;2023-02-28T17:03:34;6.37;;;5.77;;
7719;SDS011;3902;49.474;8.616;2023-02-28T17:06:01;7.10;;;6.40;;
7719;SDS011;3902;49.474;8.616;2023-02-28T17:08:27;8.63;;;6.53;;
7719;SDS011;3902;49.474;8.616;2023-02-28T17:10:54;6.90;;;6.13;;
7719;SDS011;3902;49.474;8.616;2023-02-28T17:13:20;7.40;;;6.60;;
7719;SDS011;3902;49.474;8.616;2023-02-28T17:15:46;7.90;;;7.10;;
7719;SDS011;3902;49.474;8.616;2023-02-28T17:18:13;7.87;;;7.17;;
7719;SDS011;3902;49.474;8.616;2023-02-28T17:20:41;7.20;;;6.40;;
7719;SDS011;3902;49.474;8.616;2023-02-28T17:23:07;7.57;;;6.80;;
7719;SDS011;3902;49.474;8.616;2023-02-28T17:25:33;8.73;;;7.33;;
7719;SDS011;3902;49.474;8.616;2023-02-28T17:27:58;7.30;;;6.60;;
7719;SDS011;3902;49.474;8.616;2023-02-28T17:30:25;8.47;;;7.00;;
7719;SDS011;3902;49.474;8.616;2023-02-28T17:32:55;9.47;;;7.97;;
7719;SDS011;3902;49.474;8.616;2023-02-28T17:35:21;7.97;;;7.10;;
7719;SDS011;3902;49.474;8.616;2023-02-28T17:37:47;8.50;;;7.10;;
7719;SDS011;3902;49.474;8.616;2023-02-28T17:40:16;7.40;;;6.67;;
7719;SDS011;3902;49.474;8.616;2023-02-28T17:42:47;10.00;;;6.67;;
7719;SDS011;3902;49.474;8.616;2023-02-28T17:45:14;8.07;;;7.33;;
7719;SDS011;3902;49.474;8.616;2023-02-28T17:47:40;9.23;;;7.90;;